Time;durP1;ratioP1;P1;durP2;ratioP2;P2;SDS_P1;SDS_P2;PMS_P1;PMS_P2;Temp;Humidity;BMP_temperature;BMP_pressure;BME280_temperature;BME280_humidity;BME280_pressure;Samples;Min_cycle;Max_cycle;Signal;HPM_P1;HPM_P2
2024/04/02 00:01:47;;;;;;;24.48;11.18;;;;;;;;;;4963006;28;20045;-64
2024/04/02 00:04:14;;;;;;;20.00;11.02;;;;;;;;;;4962115;28;20127;-64
2024/04/02 00:06:40;;;;;;;25.67;11.27;;;;;;;;;;4963497;28;20138;-64
2024/04/02 00:09:06;;;;;;;20.50;10.68;;;;;;;;;;4964642;28;20082;-64
2024/04/02 00:11:33;;;;;;;21.80;11.70;;;;;;;;;;4960593;28;20501;-64
2024/04/02 00:13:59;;;;;;;25.58;11.57;;;;;;;;;;4945604;28;20802;-64
2024/04/02 00:16:25;;;;;;;20.30;11.13;;;;;;;;;;4962524;28;20043;-64
2024/04/02 00:18:52;;;;;;;27.63;12.10;;;;;;;;;;4962654;28;20042;-64
2024/04/02 00:21:18;;;;;;;22.95;11.65;;;;;;;;;;4961609;28;20125;-64
2024/04/02 00:23:45;;;;;;;23.48;11.43;;;;;;;;;;4962730;28;20503;-64
2024/04/02 00:26:12;;;;;;;21.10;11.88;;;;;;;;;;4946122;28;20046;-64
2024/04/02 00:28:39;;;;;;;26.05;11.65;;;;;;;;;;4964266;28;20058;-65
2024/04/02 00:31:06;;;;;;;26.25;12.00;;;;;;;;;;4963464;28;20058;-64
2024/04/02 00:33:32;;;;;;;26.60;12.18;;;;;;;;;;4962811;28;20042;-64
2024/04/02 00:36:06;;;;;;;21.88;11.90;;;;;;;;;;4962871;28;20055;-64
2024/04/02 00:38:33;;;;;;;22.67;11.50;;;;;;;;;;4963775;28;20046;-64
2024/04/02 00:41:00;;;;;;;20.33;11.57;;;;;;;;;;4960665;28;20399;-64
2024/04/02 00:43:27;;;;;;;25.42;11.10;;;;;;;;;;4963964;28;20050;-64
2024/04/02 00:45:53;;;;;;;31.02;11.32;;;;;;;;;;4945171;28;20050;-64
2024/04/02 00:48:20;;;;;;;28.40;12.55;;;;;;;;;;4959552;28;20129;-64
2024/04/02 00:50:47;;;;;;;20.73;11.60;;;;;;;;;;4945401;28;20046;-64
2024/04/02 00:53:14;;;;;;;23.77;12.30;;;;;;;;;;4945359;28;20134;-64
2024/04/02 00:55:43;;;;;;;21.38;11.82;;;;;;;;;;4944305;28;20103;-64
2024/04/02 00:58:10;;;;;;;20.73;11.15;;;;;;;;;;4963600;28;20050;-64
2024/04/02 01:00:36;;;;;;;22.67;12.20;;;;;;;;;;4944907;28;20074;-64
2024/04/02 01:03:03;;;;;;;24.98;12.93;;;;;;;;;;4962848;28;20055;-64
2024/04/02 01:05:30;;;;;;;23.05;10.43;;;;;;;;;;4947229;28;20050;-64
2024/04/02 01:07:56;;;;;;;20.88;11.32;;;;;;;;;;4941894;28;20224;-64
2024/04/02 01:10:22;;;;;;;24.92;11.70;;;;;;;;;;4962841;28;20709;-64
2024/04/02 01:12:48;;;;;;;28.17;12.38;;;;;;;;;;4964601;28;20039;-64
2024/04/02 01:15:19;;;;;;;18.88;10.95;;;;;;;;;;4963102;28;20121;-64
2024/04/02 01:17:46;;;;;;;26.48;11.57;;;;;;;;;;4963520;28;20093;-64
2024/04/02 01:20:12;;;;;;;24.95;11.52;;;;;;;;;;4963899;28;20152;-64
2024/04/02 01:22:38;;;;;;;28.20;11.73;;;;;;;;;;4958413;28;20053;-64
2024/04/02 01:25:05;;;;;;;25.17;12.07;;;;;;;;;;4962422;28;20066;-64
2024/04/02 01:27:31;;;;;;;24.52;11.15;;;;;;;;;;4947096;28;20062;-64
2024/04/02 01:29:57;;;;;;;23.00;11.50;;;;;;;;;;4943260;28;20087;-64
2024/04/02 01:32:23;;;;;;;28.10;13.75;;;;;;;;;;4964413;28;20070;-64
2024/04/02 01:34:50;;;;;;;31.20;12.63;;;;;;;;;;4966268;28;20054;-64
2024/04/02 01:37:16;;;;;;;33.92;13.40;;;;;;;;;;4946395;28;20132;-64
2024/04/02 01:39:42;;;;;;;23.98;11.57;;;;;;;;;;4961708;28;20055;-65
2024/04/02 01:42:08;;;;;;;30.55;12.48;;;;;;;;;;4962052;28;20046;-64
2024/04/02 01:44:35;;;;;;;26.45;12.38;;;;;;;;;;4964112;28;20126;-64
2024/04/02 01:47:01;;;;;;;27.35;11.00;;;;;;;;;;4965496;28;21388;-65
2024/04/02 01:49:27;;;;;;;27.55;12.18;;;;;;;;;;4964519;28;20105;-64
2024/04/02 01:51:53;;;;;;;24.90;11.02;;;;;;;;;;4943367;28;20491;-64
2024/04/02 01:54:19;;;;;;;28.85;11.38;;;;;;;;;;4965781;28;20118;-64
2024/04/02 01:56:45;;;;;;;24.42;10.93;;;;;;;;;;4962299;28;20141;-64
2024/04/02 01:59:12;;;;;;;28.65;11.65;;;;;;;;;;4966038;28;20038;-64
2024/04/02 02:01:38;;;;;;;26.10;11.45;;;;;;;;;;4966935;28;20130;-64
2024/04/02 02:04:05;;;;;;;26.70;9.90;;;;;;;;;;4962262;28;20081;-64
2024/04/02 02:06:31;;;;;;;22.90;10.25;;;;;;;;;;4945357;28;20046;-64
2024/04/02 02:08:57;;;;;;;27.02;10.48;;;;;;;;;;4960704;28;20125;-64
2024/04/02 02:11:23;;;;;;;21.30;9.25;;;;;;;;;;4961419;28;20094;-64
2024/04/02 02:13:50;;;;;;;27.45;9.75;;;;;;;;;;4962472;28;20051;-64
2024/04/02 02:16:16;;;;;;;18.15;8.90;;;;;;;;;;4962208;28;20046;-65
2024/04/02 02:18:42;;;;;;;18.98;8.63;;;;;;;;;;4963742;28;20043;-64
2024/04/02 02:21:08;;;;;;;20.23;8.38;;;;;;;;;;4964381;28;20057;-64
2024/04/02 02:23:34;;;;;;;23.42;8.20;;;;;;;;;;4967594;28;20046;-64
2024/04/02 02:26:01;;;;;;;23.13;8.02;;;;;;;;;;4966932;28;20402;-64
2024/04/02 02:28:28;;;;;;;22.02;7.80;;;;;;;;;;4967102;28;20130;-64
2024/04/02 02:30:54;;;;;;;21.38;7.72;;;;;;;;;;4948198;28;20115;-64
2024/04/02 02:33:20;;;;;;;19.63;8.40;;;;;;;;;;4965987;28;20059;-64
2024/04/02 02:35:53;;;;;;;16.02;7.45;;;;;;;;;;4966710;28;20046;-64
2024/04/02 02:38:19;;;;;;;18.58;7.82;;;;;;;;;;4949739;28;20109;-64
2024/04/02 02:40:46;;;;;;;20.42;9.35;;;;;;;;;;4961693;28;20039;-64
2024/04/02 02:43:12;;;;;;;27.08;6.82;;;;;;;;;;4961649;28;20051;-64
2024/04/02 02:45:38;;;;;;;20.45;7.70;;;;;;;;;;4959729;28;20110;-64
2024/04/02 02:48:04;;;;;;;17.85;6.88;;;;;;;;;;4959581;28;20043;-64
2024/04/02 02:50:31;;;;;;;20.90;7.75;;;;;;;;;;4963275;28;20490;-64
2024/04/02 02:52:57;;;;;;;20.17;6.55;;;;;;;;;;4964483;28;20134;-64
2024/04/02 02:55:23;;;;;;;24.52;8.45;;;;;;;;;;4963003;28;20118;-64
2024/04/02 02:57:49;;;;;;;18.40;8.25;;;;;;;;;;4968113;28;20099;-64
2024/04/02 03:00:15;;;;;;;19.85;7.85;;;;;;;;;;4949802;28;20050;-64
2024/04/02 03:02:42;;;;;;;29.50;10.43;;;;;;;;;;4944788;28;20057;-65
2024/04/02 03:05:08;;;;;;;25.35;9.73;;;;;;;;;;4945506;28;20502;-64
2024/04/02 03:07:36;;;;;;;24.30;11.15;;;;;;;;;;4961971;28;20062;-64
2024/04/02 03:10:03;;;;;;;28.15;12.63;;;;;;;;;;4943558;28;20050;-64
2024/04/02 03:12:29;;;;;;;27.02;12.77;;;;;;;;;;4948284;28;20043;-64
2024/04/02 03:14:55;;;;;;;31.50;14.00;;;;;;;;;;4965679;28;20130;-64
2024/04/02 03:17:21;;;;;;;35.92;15.93;;;;;;;;;;4964428;28;20065;-64
2024/04/02 03:19:48;;;;;;;30.95;14.27;;;;;;;;;;4964002;28;20057;-64
2024/04/02 03:22:14;;;;;;;32.17;16.67;;;;;;;;;;4950994;28;20047;-64
2024/04/02 03:24:40;;;;;;;33.47;16.35;;;;;;;;;;4950605;28;20364;-64
2024/04/02 03:27:07;;;;;;;38.95;17.85;;;;;;;;;;4951430;28;20129;-64
2024/04/02 03:29:33;;;;;;;34.10;18.50;;;;;;;;;;4965635;28;20043;-64
2024/04/02 03:31:59;;;;;;;36.60;18.63;;;;;;;;;;4968304;28;20118;-64
2024/04/02 03:34:27;;;;;;;32.60;18.38;;;;;;;;;;4967254;28;20395;-64
2024/04/02 03:36:55;;;;;;;37.72;19.42;;;;;;;;;;4963666;28;20051;-64
2024/04/02 03:39:21;;;;;;;42.85;21.60;;;;;;;;;;4965567;28;20073;-64
2024/04/02 03:41:49;;;;;;;37.70;20.63;;;;;;;;;;4949878;28;20541;-64
2024/04/02 03:44:16;;;;;;;37.92;19.95;;;;;;;;;;4965922;28;20181;-64
2024/04/02 03:46:42;;;;;;;38.97;20.85;;;;;;;;;;4964031;28;20096;-64
2024/04/02 03:49:09;;;;;;;42.67;21.60;;;;;;;;;;4966337;28;20114;-64
2024/04/02 03:51:35;;;;;;;38.00;21.20;;;;;;;;;;4947407;28;20412;-64
2024/04/02 03:54:01;;;;;;;39.38;21.67;;;;;;;;;;4947433;28;20049;-64
2024/04/02 03:56:27;;;;;;;47.20;22.08;;;;;;;;;;4965030;28;20090;-64
2024/04/02 03:58:53;;;;;;;42.55;23.55;;;;;;;;;;4964162;28;20569;-64
2024/04/02 04:01:20;;;;;;;47.92;22.50;;;;;;;;;;4963818;28;20070;-64
2024/04/02 04:03:46;;;;;;;42.33;23.23;;;;;;;;;;4948735;28;20099;-64
2024/04/02 04:06:12;;;;;;;38.45;21.52;;;;;;;;;;4964028;28;20458;-64
2024/04/02 04:08:38;;;;;;;46.50;23.88;;;;;;;;;;4944605;28;20055;-64
2024/04/02 04:11:04;;;;;;;42.97;22.58;;;;;;;;;;4965916;28;20054;-64
2024/04/02 04:13:31;;;;;;;40.35;22.02;;;;;;;;;;4963557;28;20121;-64
2024/04/02 04:15:58;;;;;;;39.55;21.08;;;;;;;;;;4965335;28;20041;-64
2024/04/02 04:18:24;;;;;;;44.67;22.83;;;;;;;;;;4949894;28;20047;-64
2024/04/02 04:20:52;;;;;;;35.67;21.40;;;;;;;;;;4967099;28;20047;-67
2024/04/02 04:23:18;;;;;;;40.47;21.48;;;;;;;;;;4965192;28;20046;-64
2024/04/02 04:25:44;;;;;;;40.72;22.95;;;;;;;;;;4963624;28;20088;-65
2024/04/02 04:28:10;;;;;;;38.15;22.25;;;;;;;;;;4964549;28;20075;-64
2024/04/02 04:30:36;;;;;;;39.55;21.55;;;;;;;;;;4946949;28;20043;-64
2024/04/02 04:33:03;;;;;;;38.45;21.85;;;;;;;;;;4947011;28;20078;-64
2024/04/02 04:35:36;;;;;;;47.13;23.25;;;;;;;;;;4965581;28;20501;-64
2024/04/02 04:38:02;;;;;;;49.75;22.67;;;;;;;;;;4966675;28;20173;-64
2024/04/02 04:40:29;;;;;;;46.15;23.00;;;;;;;;;;4964765;28;21566;-64
2024/04/02 04:42:55;;;;;;;42.80;24.77;;;;;;;;;;4964392;28;20047;-64
2024/04/02 04:45:21;;;;;;;37.85;21.45;;;;;;;;;;4946967;28;20428;-64
2024/04/02 04:47:47;;;;;;;40.63;24.20;;;;;;;;;;4964934;28;20089;-64
2024/04/02 04:50:14;;;;;;;41.08;22.63;;;;;;;;;;4963481;28;20049;-64
2024/04/02 04:52:40;;;;;;;42.70;22.85;;;;;;;;;;4965258;28;20051;-64
2024/04/02 04:55:06;;;;;;;41.20;22.55;;;;;;;;;;4966897;28;20359;-64
2024/04/02 04:57:32;;;;;;;42.33;22.17;;;;;;;;;;4948973;28;20046;-65
2024/04/02 04:59:59;;;;;;;40.97;21.83;;;;;;;;;;4947947;28;20134;-64
2024/04/02 05:02:25;;;;;;;36.33;21.42;;;;;;;;;;4946843;28;20057;-64
2024/04/02 05:04:51;;;;;;;41.38;21.15;;;;;;;;;;4963155;28;20122;-64
2024/04/02 05:07:24;;;;;;;39.47;20.77;;;;;;;;;;4964343;28;20136;-64
2024/04/02 05:09:50;;;;;;;39.05;21.17;;;;;;;;;;4962775;28;20038;-64
2024/04/02 05:12:17;;;;;;;34.53;19.63;;;;;;;;;;4964527;28;20054;-64
2024/04/02 05:14:43;;;;;;;38.92;18.85;;;;;;;;;;4946512;28;20039;-65
2024/04/02 05:17:10;;;;;;;37.70;20.02;;;;;;;;;;4945630;28;20080;-64
2024/04/02 05:19:36;;;;;;;43.20;19.27;;;;;;;;;;4965174;28;20059;-64
2024/04/02 05:22:05;;;;;;;35.70;18.65;;;;;;;;;;4959971;28;20047;-64
2024/04/02 05:24:31;;;;;;;36.08;17.95;;;;;;;;;;4944021;28;20162;-64
2024/04/02 05:26:57;;;;;;;31.02;18.23;;;;;;;;;;4943967;28;20423;-65
2024/04/02 05:29:23;;;;;;;34.75;18.20;;;;;;;;;;4961887;28;20514;-64
2024/04/02 05:31:50;;;;;;;33.85;18.40;;;;;;;;;;4963489;28;20038;-64
2024/04/02 05:34:16;;;;;;;33.05;18.20;;;;;;;;;;4944428;28;21278;-64
2024/04/02 05:36:42;;;;;;;38.90;18.63;;;;;;;;;;4961517;28;20483;-65
2024/04/02 05:39:08;;;;;;;30.63;18.10;;;;;;;;;;4964096;28;20104;-64
2024/04/02 05:41:35;;;;;;;33.80;18.13;;;;;;;;;;4966089;28;20117;-64
2024/04/02 05:44:01;;;;;;;36.35;17.02;;;;;;;;;;4946208;28;20062;-64
2024/04/02 05:46:27;;;;;;;34.30;18.30;;;;;;;;;;4964454;28;20201;-64
2024/04/02 05:48:53;;;;;;;34.42;16.55;;;;;;;;;;4945487;28;20043;-64
2024/04/02 05:51:19;;;;;;;34.20;18.05;;;;;;;;;;4966388;28;20145;-64
2024/04/02 05:53:46;;;;;;;31.13;17.70;;;;;;;;;;4963287;28;20055;-64
2024/04/02 05:56:13;;;;;;;30.27;17.83;;;;;;;;;;4943808;28;20069;-74
2024/04/02 05:58:39;;;;;;;37.05;19.40;;;;;;;;;;4965365;28;20077;-64
2024/04/02 06:01:06;;;;;;;37.92;18.58;;;;;;;;;;4967170;28;20046;-62
2024/04/02 06:03:32;;;;;;;37.20;18.30;;;;;;;;;;4961492;28;20047;-64
2024/04/02 06:05:59;;;;;;;32.20;17.77;;;;;;;;;;4944005;28;20042;-64
2024/04/02 06:08:25;;;;;;;31.52;18.20;;;;;;;;;;4958737;28;20051;-64
2024/04/02 06:10:51;;;;;;;36.63;19.35;;;;;;;;;;4959716;28;20051;-64
2024/04/02 06:13:17;;;;;;;29.40;17.98;;;;;;;;;;4940820;28;20059;-65
2024/04/02 06:15:44;;;;;;;33.53;18.88;;;;;;;;;;4945286;28;20538;-65
2024/04/02 06:18:12;;;;;;;31.42;18.95;;;;;;;;;;4940071;28;20448;-64
2024/04/02 06:20:38;;;;;;;31.50;18.50;;;;;;;;;;4943221;28;20149;-65
2024/04/02 06:23:04;;;;;;;34.35;18.95;;;;;;;;;;4943153;28;20083;-73
2024/04/02 06:25:31;;;;;;;29.80;17.77;;;;;;;;;;4943107;28;20117;-66
2024/04/02 06:27:57;;;;;;;29.58;18.10;;;;;;;;;;4936294;28;20043;-66
2024/04/02 06:30:23;;;;;;;26.98;17.88;;;;;;;;;;4939302;28;20175;-66
2024/04/02 06:32:49;;;;;;;36.35;18.77;;;;;;;;;;4953501;28;20549;-66
2024/04/02 06:35:15;;;;;;;34.25;17.85;;;;;;;;;;4943959;28;20050;-65
2024/04/02 06:37:42;;;;;;;26.33;16.75;;;;;;;;;;4940828;28;20043;-66
2024/04/02 06:40:08;;;;;;;33.33;18.30;;;;;;;;;;4940313;28;20134;-65
2024/04/02 06:42:34;;;;;;;27.88;16.27;;;;;;;;;;4942345;28;20055;-65
2024/04/02 06:45:00;;;;;;;26.73;16.52;;;;;;;;;;4944149;28;20086;-64
2024/04/02 06:47:26;;;;;;;49.38;18.52;;;;;;;;;;4945239;28;20063;-65
2024/04/02 06:49:53;;;;;;;28.45;15.30;;;;;;;;;;4947959;28;20165;-66
2024/04/02 06:52:19;;;;;;;31.08;15.07;;;;;;;;;;4946522;28;20126;-65
2024/04/02 06:54:45;;;;;;;23.88;14.35;;;;;;;;;;4961631;28;20046;-66
2024/04/02 06:57:11;;;;;;;23.98;13.93;;;;;;;;;;4947306;28;20051;-66
2024/04/02 06:59:38;;;;;;;31.15;14.93;;;;;;;;;;4947835;28;21249;-66
2024/04/02 07:02:05;;;;;;;22.88;13.88;;;;;;;;;;4946692;28;20138;-66
2024/04/02 07:04:32;;;;;;;25.35;13.57;;;;;;;;;;4947716;28;20043;-65
2024/04/02 07:06:58;;;;;;;28.10;14.57;;;;;;;;;;4948475;28;20098;-66
2024/04/02 07:09:25;;;;;;;20.60;12.68;;;;;;;;;;4942571;28;20055;-67
2024/04/02 07:11:51;;;;;;;22.15;12.02;;;;;;;;;;4942053;28;20158;-66
2024/04/02 07:14:17;;;;;;;24.10;12.98;;;;;;;;;;4945851;28;20058;-66
2024/04/02 07:16:44;;;;;;;19.73;12.35;;;;;;;;;;4947956;28;20043;-66
2024/04/02 07:19:10;;;;;;;16.67;11.10;;;;;;;;;;4946432;28;20047;-66
2024/04/02 07:21:36;;;;;;;23.33;11.43;;;;;;;;;;4940474;28;20930;-65
2024/04/02 07:24:02;;;;;;;20.85;11.77;;;;;;;;;;4947276;28;20086;-66
2024/04/02 07:26:29;;;;;;;24.73;11.18;;;;;;;;;;4942792;28;20047;-66
2024/04/02 07:28:55;;;;;;;18.42;11.02;;;;;;;;;;4941884;28;20103;-66
2024/04/02 07:31:24;;;;;;;18.00;10.88;;;;;;;;;;4944293;28;20151;-66
2024/04/02 07:33:51;;;;;;;18.92;10.75;;;;;;;;;;4937600;28;20053;-66
2024/04/02 07:36:18;;;;;;;13.63;9.95;;;;;;;;;;4936670;28;20411;-66
2024/04/02 07:38:44;;;;;;;17.08;8.82;;;;;;;;;;4950341;28;20047;-66
2024/04/02 07:41:11;;;;;;;18.08;9.50;;;;;;;;;;4946948;28;20128;-66
2024/04/02 07:43:38;;;;;;;19.98;9.73;;;;;;;;;;4945895;28;20122;-65
2024/04/02 07:46:04;;;;;;;23.17;10.77;;;;;;;;;;4943093;28;20035;-66
2024/04/02 07:48:30;;;;;;;18.02;10.05;;;;;;;;;;4943344;28;20043;-65
2024/04/02 07:50:58;;;;;;;23.02;10.00;;;;;;;;;;4944829;28;20192;-66
2024/04/02 07:53:24;;;;;;;16.08;8.82;;;;;;;;;;4945788;28;20083;-66
2024/04/02 07:55:51;;;;;;;16.25;8.85;;;;;;;;;;4947555;28;20051;-66
2024/04/02 07:58:17;;;;;;;17.63;7.57;;;;;;;;;;4945490;28;20426;-66
2024/04/02 08:00:44;;;;;;;20.48;9.80;;;;;;;;;;4941325;28;20051;-66
2024/04/02 08:03:10;;;;;;;21.60;10.20;;;;;;;;;;4944642;28;20119;-66
2024/04/02 08:05:36;;;;;;;16.30;8.80;;;;;;;;;;4942869;28;20051;-66
2024/04/02 08:08:03;;;;;;;18.00;8.32;;;;;;;;;;4957652;28;20113;-66
2024/04/02 08:10:29;;;;;;;15.50;8.63;;;;;;;;;;4947859;28;20541;-66
2024/04/02 08:12:55;;;;;;;11.85;7.05;;;;;;;;;;4963623;28;20061;-66
2024/04/02 08:15:22;;;;;;;16.45;7.70;;;;;;;;;;4961161;28;20102;-66
2024/04/02 08:17:48;;;;;;;19.20;7.95;;;;;;;;;;4962532;28;20529;-65
2024/04/02 08:20:14;;;;;;;15.23;6.43;;;;;;;;;;4964889;28;20097;-65
2024/04/02 08:22:41;;;;;;;19.55;6.95;;;;;;;;;;4941662;28;20473;-65
2024/04/02 08:25:10;;;;;;;20.10;7.50;;;;;;;;;;4944986;28;20406;-66
2024/04/02 08:27:36;;;;;;;12.45;6.35;;;;;;;;;;4964537;28;20049;-66
2024/04/02 08:30:06;;;;;;;16.48;6.32;;;;;;;;;;4950903;28;20054;-66
2024/04/02 08:32:33;;;;;;;13.35;6.15;;;;;;;;;;4962271;28;20429;-66
2024/04/02 08:34:59;;;;;;;14.52;6.38;;;;;;;;;;4951629;28;20042;-66
2024/04/02 08:37:25;;;;;;;13.60;5.72;;;;;;;;;;4946002;28;20177;-66
2024/04/02 08:39:51;;;;;;;12.88;5.20;;;;;;;;;;4944968;28;20394;-66
2024/04/02 08:42:19;;;;;;;14.60;5.25;;;;;;;;;;4954072;28;20042;-66
2024/04/02 08:44:46;;;;;;;17.23;5.95;;;;;;;;;;4947485;28;20054;-66
2024/04/02 08:47:13;;;;;;;18.38;5.82;;;;;;;;;;4967232;28;20087;-65
2024/04/02 08:49:40;;;;;;;21.17;6.90;;;;;;;;;;4952769;28;20039;-66
2024/04/02 08:52:07;;;;;;;15.50;6.05;;;;;;;;;;4948890;28;20051;-65
2024/04/02 08:54:33;;;;;;;16.70;5.63;;;;;;;;;;4964445;28;20117;-66
2024/04/02 08:57:00;;;;;;;16.58;6.28;;;;;;;;;;4949628;28;20122;-66
2024/04/02 08:59:27;;;;;;;21.05;5.97;;;;;;;;;;4963137;28;20112;-66
2024/04/02 09:01:55;;;;;;;18.40;6.45;;;;;;;;;;4947310;28;20149;-66
2024/04/02 09:04:23;;;;;;;17.70;6.53;;;;;;;;;;4948104;28;20102;-67
2024/04/02 09:06:50;;;;;;;18.20;5.68;;;;;;;;;;4943038;28;20051;-67
2024/04/02 09:09:23;;;;;;;16.65;5.55;;;;;;;;;;4946297;28;20086;-66
2024/04/02 09:11:51;;;;;;;20.85;5.68;;;;;;;;;;4962125;28;20056;-66
2024/04/02 09:14:17;;;;;;;18.02;6.22;;;;;;;;;;4941478;28;20479;-66
2024/04/02 09:16:44;;;;;;;17.17;5.18;;;;;;;;;;4946931;28;20113;-66
2024/04/02 09:19:10;;;;;;;18.20;5.15;;;;;;;;;;4944182;28;20043;-66
2024/04/02 09:21:36;;;;;;;18.08;5.05;;;;;;;;;;4944227;28;21990;-66
2024/04/02 09:24:03;;;;;;;20.17;4.90;;;;;;;;;;4945838;28;20099;-66
2024/04/02 09:26:29;;;;;;;21.30;4.45;;;;;;;;;;4942239;28;20452;-66
2024/04/02 09:28:55;;;;;;;15.70;4.95;;;;;;;;;;4944165;28;20127;-66
2024/04/02 09:31:22;;;;;;;11.02;4.20;;;;;;;;;;4942959;28;20042;-66
2024/04/02 09:33:50;;;;;;;17.02;5.10;;;;;;;;;;4945106;28;20043;-66
2024/04/02 09:36:39;;;;;;;19.67;4.90;;;;;;;;;;4944526;28;20059;-66
2024/04/02 09:39:06;;;;;;;15.35;5.05;;;;;;;;;;4944843;28;20043;-67
2024/04/02 09:41:33;;;;;;;20.85;4.57;;;;;;;;;;4946280;28;20475;-66
2024/04/02 09:44:01;;;;;;;13.88;4.25;;;;;;;;;;4943628;28;20083;-66
2024/04/02 09:46:28;;;;;;;18.98;4.30;;;;;;;;;;4945951;28;20047;-66
2024/04/02 09:48:56;;;;;;;13.70;4.00;;;;;;;;;;4935673;28;20411;-66
2024/04/02 09:51:24;;;;;;;19.20;4.50;;;;;;;;;;4944382;28;20070;-66
2024/04/02 09:53:50;;;;;;;12.60;3.65;;;;;;;;;;4959852;28;20074;-66
2024/04/02 09:56:18;;;;;;;13.93;4.47;;;;;;;;;;4945046;28;20051;-66
2024/04/02 09:58:46;;;;;;;21.90;5.15;;;;;;;;;;4945489;28;20042;-66
2024/04/02 10:01:14;;;;;;;15.95;4.53;;;;;;;;;;4946977;28;20979;-66
2024/04/02 10:03:43;;;;;;;9.98;4.28;;;;;;;;;;4941149;28;20139;-66
2024/04/02 10:06:10;;;;;;;16.40;4.68;;;;;;;;;;4940201;28;20055;-66
2024/04/02 10:08:36;;;;;;;13.38;5.45;;;;;;;;;;4964724;28;20054;-66
2024/04/02 10:11:04;;;;;;;18.83;7.15;;;;;;;;;;4946795;28;20086;-65
2024/04/02 10:13:35;;;;;;;17.60;6.80;;;;;;;;;;4965528;28;20047;-66
2024/04/02 10:16:01;;;;;;;16.25;6.45;;;;;;;;;;4965927;28;20126;-66
2024/04/02 10:18:27;;;;;;;13.65;6.22;;;;;;;;;;4963906;28;20380;-66
2024/04/02 10:20:57;;;;;;;17.50;6.90;;;;;;;;;;4966261;28;20106;-66
2024/04/02 10:23:25;;;;;;;16.60;6.88;;;;;;;;;;4966976;28;20046;-66
2024/04/02 10:25:51;;;;;;;14.60;6.72;;;;;;;;;;4948231;28;20050;-66
2024/04/02 10:28:25;;;;;;;15.73;6.82;;;;;;;;;;4952234;28;20046;-66
2024/04/02 10:30:51;;;;;;;15.65;6.35;;;;;;;;;;4951796;28;20137;-66
2024/04/02 10:33:19;;;;;;;15.88;7.10;;;;;;;;;;4967765;28;20047;-66
2024/04/02 10:35:46;;;;;;;16.70;6.07;;;;;;;;;;4958099;28;20415;-65
2024/04/02 10:38:12;;;;;;;15.30;5.88;;;;;;;;;;4951143;28;20498;-66
2024/04/02 10:40:38;;;;;;;14.63;5.70;;;;;;;;;;4968399;28;20054;-66
2024/04/02 10:43:05;;;;;;;15.82;5.80;;;;;;;;;;4967813;28;21731;-66
2024/04/02 10:45:31;;;;;;;19.23;5.00;;;;;;;;;;4966540;28;20225;-66
2024/04/02 10:47:58;;;;;;;14.50;4.82;;;;;;;;;;4966151;28;20491;-66
2024/04/02 10:50:24;;;;;;;10.52;4.88;;;;;;;;;;4949611;28;20046;-66
2024/04/02 10:52:51;;;;;;;13.70;5.32;;;;;;;;;;4947083;28;20039;-66
2024/04/02 10:55:17;;;;;;;14.85;6.75;;;;;;;;;;4966549;28;20038;-66
2024/04/02 10:57:43;;;;;;;13.13;6.68;;;;;;;;;;4947204;28;20419;-66
2024/04/02 11:00:11;;;;;;;21.55;7.60;;;;;;;;;;4965303;28;20042;-66
2024/04/02 11:02:38;;;;;;;18.55;7.15;;;;;;;;;;4950432;28;20105;-66
2024/04/02 11:05:05;;;;;;;15.80;7.35;;;;;;;;;;4969575;28;20489;-66
2024/04/02 11:07:32;;;;;;;13.82;7.18;;;;;;;;;;4965092;28;20063;-66
2024/04/02 11:09:59;;;;;;;12.45;7.15;;;;;;;;;;4951992;28;20051;-67
2024/04/02 11:12:25;;;;;;;15.65;7.35;;;;;;;;;;4951740;28;20379;-65
2024/04/02 11:14:53;;;;;;;14.88;8.02;;;;;;;;;;4951284;28;20046;-66
2024/04/02 11:17:19;;;;;;;18.35;8.25;;;;;;;;;;4951232;28;20486;-66
2024/04/02 11:19:45;;;;;;;17.83;7.60;;;;;;;;;;4951555;28;20051;-65
2024/04/02 11:25:07;;;;;;;20.52;6.18;;;;;;;;;;4968364;28;20165;-65
2024/04/02 11:27:34;;;;;;;17.58;6.75;;;;;;;;;;4964416;28;20142;-65
2024/04/02 11:30:00;;;;;;;16.60;5.57;;;;;;;;;;4969959;28;20123;-65
2024/04/02 11:32:27;;;;;;;13.77;6.05;;;;;;;;;;4963379;28;20050;-65
2024/04/02 11:34:55;;;;;;;15.93;5.60;;;;;;;;;;4953020;28;20075;-65
2024/04/02 11:37:21;;;;;;;15.48;5.65;;;;;;;;;;4950689;28;20043;-65
2024/04/02 11:39:47;;;;;;;12.77;5.43;;;;;;;;;;4968369;28;20125;-65
2024/04/02 11:42:13;;;;;;;10.15;5.68;;;;;;;;;;4966573;28;20035;-65
2024/04/02 11:44:40;;;;;;;14.55;6.03;;;;;;;;;;4949841;28;20038;-65
2024/04/02 11:47:07;;;;;;;16.15;5.47;;;;;;;;;;4966876;28;20078;-65
2024/04/02 11:49:33;;;;;;;11.48;5.20;;;;;;;;;;4966938;28;20051;-65
2024/04/02 11:51:59;;;;;;;19.58;6.50;;;;;;;;;;4948746;28;20097;-65
2024/04/02 11:54:26;;;;;;;8.13;3.97;;;;;;;;;;4966717;28;20035;-65
2024/04/02 12:02:22;;;;;;;13.25;4.40;;;;;;;;;;4948710;28;20117;-65
2024/04/02 12:04:49;;;;;;;15.30;4.00;;;;;;;;;;4965288;28;20387;-65
2024/04/02 12:07:15;;;;;;;9.13;3.30;;;;;;;;;;4948874;28;20095;-63
2024/04/02 12:09:43;;;;;;;7.88;3.40;;;;;;;;;;4948125;28;20071;-63
2024/04/02 12:12:10;;;;;;;13.88;3.15;;;;;;;;;;4965183;28;20751;-65
2024/04/02 12:14:36;;;;;;;12.02;3.45;;;;;;;;;;4960348;28;20065;-65
2024/04/02 12:17:02;;;;;;;10.25;3.47;;;;;;;;;;4945361;28;20043;-65
2024/04/02 12:19:28;;;;;;;10.25;3.85;;;;;;;;;;4964761;28;20043;-65
2024/04/02 12:21:54;;;;;;;10.63;3.42;;;;;;;;;;4962896;28;20043;-65
2024/04/02 12:24:21;;;;;;;8.38;2.72;;;;;;;;;;4955937;28;20043;-65
2024/04/02 12:26:47;;;;;;;8.93;3.50;;;;;;;;;;4961608;28;20050;-65
2024/04/02 12:29:13;;;;;;;7.38;2.65;;;;;;;;;;4948228;28;20482;-65
2024/04/02 12:31:39;;;;;;;7.72;2.97;;;;;;;;;;4959817;28;20589;-65
2024/04/02 12:34:05;;;;;;;10.32;3.20;;;;;;;;;;4964518;28;20043;-65
2024/04/02 12:36:31;;;;;;;8.80;2.72;;;;;;;;;;4948958;28;20570;-65
2024/04/02 12:38:58;;;;;;;9.20;2.90;;;;;;;;;;4962191;28;20089;-65
2024/04/02 12:41:24;;;;;;;6.30;2.15;;;;;;;;;;4962223;28;20119;-65
2024/04/02 12:43:50;;;;;;;9.82;2.65;;;;;;;;;;4963895;28;20531;-65
2024/04/02 12:46:16;;;;;;;14.25;2.78;;;;;;;;;;4963970;28;20146;-65
2024/04/02 12:48:42;;;;;;;12.18;2.38;;;;;;;;;;4962132;28;20077;-65
2024/04/02 12:51:09;;;;;;;9.30;2.60;;;;;;;;;;4946397;28;20458;-65
2024/04/02 12:53:35;;;;;;;9.50;2.45;;;;;;;;;;4963663;28;20042;-65
2024/04/02 12:56:07;;;;;;;7.40;2.10;;;;;;;;;;4944393;28;20083;-65
2024/04/02 12:58:34;;;;;;;11.20;2.80;;;;;;;;;;4963552;28;20394;-65
2024/04/02 13:01:06;;;;;;;9.25;3.63;;;;;;;;;;4962793;28;20189;-65
2024/04/02 13:03:32;;;;;;;12.77;3.75;;;;;;;;;;4956733;28;20052;-65
2024/04/02 13:05:59;;;;;;;14.48;4.00;;;;;;;;;;4946285;28;20066;-65
2024/04/02 13:08:25;;;;;;;8.93;2.80;;;;;;;;;;4961567;28;20059;-65
2024/04/02 13:10:51;;;;;;;10.70;3.38;;;;;;;;;;4947750;28;20043;-65
2024/04/02 13:13:18;;;;;;;11.07;3.50;;;;;;;;;;4947755;28;20573;-65
2024/04/02 13:15:45;;;;;;;9.35;3.90;;;;;;;;;;4943294;28;20051;-65
2024/04/02 13:18:11;;;;;;;7.38;3.85;;;;;;;;;;4947498;28;20059;-65
2024/04/02 13:20:39;;;;;;;8.98;3.75;;;;;;;;;;4946862;28;20043;-65
2024/04/02 13:23:05;;;;;;;6.85;2.50;;;;;;;;;;4946697;28;20094;-65
2024/04/02 13:25:32;;;;;;;3.85;1.95;;;;;;;;;;4947843;28;20042;-65
2024/04/02 13:27:58;;;;;;;6.90;1.77;;;;;;;;;;4960967;28;20402;-65
2024/04/02 13:30:25;;;;;;;5.20;2.03;;;;;;;;;;4961418;28;20446;-65
2024/04/02 13:32:51;;;;;;;6.40;1.75;;;;;;;;;;4963201;28;20047;-65
2024/04/02 13:35:18;;;;;;;5.50;1.50;;;;;;;;;;4963158;28;20139;-65
2024/04/02 13:37:45;;;;;;;6.13;2.13;;;;;;;;;;4962414;28;20710;-65
2024/04/02 13:40:11;;;;;;;5.10;2.13;;;;;;;;;;4946900;28;20195;-65
2024/04/02 13:42:38;;;;;;;6.68;2.55;;;;;;;;;;4963657;28;20070;-65
2024/04/02 13:45:06;;;;;;;6.95;2.83;;;;;;;;;;4946949;28;20055;-65
2024/04/02 13:47:32;;;;;;;6.65;2.88;;;;;;;;;;4960759;28;20691;-65
2024/04/02 13:49:58;;;;;;;6.88;3.42;;;;;;;;;;4962934;28;20106;-65
2024/04/02 13:52:25;;;;;;;9.50;3.72;;;;;;;;;;4959248;28;20042;-65
2024/04/02 13:54:51;;;;;;;9.43;4.80;;;;;;;;;;4948882;28;20057;-65
2024/04/02 13:57:17;;;;;;;6.88;3.88;;;;;;;;;;4964092;28;20050;-65
2024/04/02 13:59:44;;;;;;;10.18;5.03;;;;;;;;;;4964728;28;20280;-65
2024/04/02 14:02:10;;;;;;;7.40;4.45;;;;;;;;;;4946693;28;20522;-65
2024/04/02 14:04:43;;;;;;;9.60;4.28;;;;;;;;;;4946670;28;20050;-65
2024/04/02 14:07:10;;;;;;;8.07;4.43;;;;;;;;;;4947717;28;20476;-65
2024/04/02 14:09:36;;;;;;;9.80;5.88;;;;;;;;;;4952368;28;20182;-65
2024/04/02 14:12:04;;;;;;;10.70;4.88;;;;;;;;;;4960496;28;20102;-65
2024/04/02 14:14:30;;;;;;;8.40;4.75;;;;;;;;;;4947971;28;20078;-65
2024/04/02 14:16:57;;;;;;;9.73;5.38;;;;;;;;;;4945460;28;20143;-65
2024/04/02 14:19:23;;;;;;;10.48;5.63;;;;;;;;;;4962964;28;20051;-65
2024/04/02 14:21:49;;;;;;;10.75;6.07;;;;;;;;;;4963078;28;20039;-65
2024/04/02 14:24:16;;;;;;;10.70;7.00;;;;;;;;;;4959794;28;20050;-65
2024/04/02 14:26:42;;;;;;;12.07;6.70;;;;;;;;;;4944563;28;20059;-65
2024/04/02 14:29:09;;;;;;;13.63;6.45;;;;;;;;;;4945881;28;20051;-65
2024/04/02 14:31:35;;;;;;;14.85;6.43;;;;;;;;;;4948443;28;20074;-65